sensor_id;sensor_type;location;lat;lon;timestamp;P1;durP1;ratioP1;P2;durP2;ratioP2
75993;SDS011;64680;53.800;9.988;2023-03-23T00:00:47;18.42;;;8.65;;
75993;SDS011;64680;53.800;9.988;2023-03-23T00:03:13;13.60;;;7.45;;
75993;SDS011;64680;53.800;9.988;2023-03-23T00:05:38;15.75;;;8.38;;
75993;SDS011;64680;53.800;9.988;2023-03-23T00:08:06;17.48;;;8.55;;
75993;SDS011;64680;53.800;9.988;2023-03-23T00:10:36;17.73;;;8.85;;
75993;SDS011;64680;53.800;9.988;2023-03-23T00:13:02;19.05;;;8.90;;
75993;SDS011;64680;53.800;9.988;2023-03-23T00:15:28;16.33;;;8.45;;
75993;SDS011;64680;53.800;9.988;2023-03-23T00:17:58;15.73;;;8.57;;
75993;SDS011;64680;53.800;9.988;2023-03-23T00:20:29;16.55;;;8.25;;
75993;SDS011;64680;53.800;9.988;2023-03-23T00:23:02;18.77;;;9.63;;
75993;SDS011;64680;53.800;9.988;2023-03-23T00:25:29;16.33;;;9.15;;
75993;SDS011;64680;53.800;9.988;2023-03-23T00:27:54;17.70;;;9.15;;
75993;SDS011;64680;53.800;9.988;2023-03-23T00:30:20;16.48;;;8.70;;
75993;SDS011;64680;53.800;9.988;2023-03-23T00:32:47;19.42;;;8.65;;
75993;SDS011;64680;53.800;9.988;2023-03-23T00:35:13;18.33;;;8.70;;
75993;SDS011;64680;53.800;9.988;2023-03-23T00:37:39;17.80;;;8.90;;
75993;SDS011;64680;53.800;9.988;2023-03-23T00:40:05;18.23;;;9.20;;
75993;SDS011;64680;53.800;9.988;2023-03-23T00:42:34;19.60;;;9.63;;
75993;SDS011;64680;53.800;9.988;2023-03-23T00:45:02;16.30;;;9.63;;
75993;SDS011;64680;53.800;9.988;2023-03-23T00:47:35;20.05;;;9.68;;
75993;SDS011;64680;53.800;9.988;2023-03-23T00:50:05;19.52;;;10.52;;
75993;SDS011;64680;53.800;9.988;2023-03-23T00:52:31;19.80;;;10.18;;
75993;SDS011;64680;53.800;9.988;2023-03-23T00:54:57;21.77;;;10.30;;
75993;SDS011;64680;53.800;9.988;2023-03-23T00:57:22;18.58;;;10.07;;
75993;SDS011;64680;53.800;9.988;2023-03-23T00:59:50;22.10;;;11.27;;
75993;SDS011;64680;53.800;9.988;2023-03-23T01:02:16;20.30;;;11.15;;
75993;SDS011;64680;53.800;9.988;2023-03-23T01:04:43;19.35;;;10.48;;
75993;SDS011;64680;53.800;9.988;2023-03-23T01:07:11;20.85;;;10.55;;
75993;SDS011;64680;53.800;9.988;2023-03-23T01:09:42;20.05;;;10.57;;
75993;SDS011;64680;53.800;9.988;2023-03-23T01:12:10;18.38;;;10.30;;
75993;SDS011;64680;53.800;9.988;2023-03-23T01:14:37;20.45;;;10.32;;
75993;SDS011;64680;53.800;9.988;2023-03-23T01:17:03;24.55;;;12.40;;
75993;SDS011;64680;53.800;9.988;2023-03-23T01:19:29;23.20;;;11.02;;
75993;SDS011;64680;53.800;9.988;2023-03-23T01:21:54;20.13;;;11.13;;
75993;SDS011;64680;53.800;9.988;2023-03-23T01:24:20;20.80;;;11.20;;
75993;SDS011;64680;53.800;9.988;2023-03-23T01:26:45;19.35;;;10.52;;
75993;SDS011;64680;53.800;9.988;2023-03-23T01:29:12;21.48;;;10.65;;
75993;SDS011;64680;53.800;9.988;2023-03-23T01:31:38;22.50;;;11.63;;
75993;SDS011;64680;53.800;9.988;2023-03-23T01:34:04;21.60;;;12.05;;
75993;SDS011;64680;53.800;9.988;2023-03-23T01:36:30;23.58;;;12.57;;
75993;SDS011;64680;53.800;9.988;2023-03-23T01:38:58;21.30;;;11.73;;
75993;SDS011;64680;53.800;9.988;2023-03-23T01:46:38;22.98;;;12.07;;
75993;SDS011;64680;53.800;9.988;2023-03-23T01:49:06;26.05;;;13.38;;
75993;SDS011;64680;53.800;9.988;2023-03-23T01:51:37;23.23;;;12.40;;
75993;SDS011;64680;53.800;9.988;2023-03-23T01:54:09;21.23;;;12.52;;
75993;SDS011;64680;53.800;9.988;2023-03-23T01:57:03;24.67;;;13.13;;
75993;SDS011;64680;53.800;9.988;2023-03-23T01:59:31;27.13;;;14.05;;
75993;SDS011;64680;53.800;9.988;2023-03-23T02:04:25;25.02;;;12.23;;
75993;SDS011;64680;53.800;9.988;2023-03-23T02:06:51;22.27;;;11.82;;
75993;SDS011;64680;53.800;9.988;2023-03-23T02:09:21;25.02;;;12.77;;
75993;SDS011;64680;53.800;9.988;2023-03-23T02:11:47;23.20;;;13.73;;
75993;SDS011;64680;53.800;9.988;2023-03-23T02:14:15;25.50;;;13.02;;
75993;SDS011;64680;53.800;9.988;2023-03-23T02:20:01;23.23;;;13.07;;
75993;SDS011;64680;53.800;9.988;2023-03-23T02:25:51;26.65;;;14.23;;
75993;SDS011;64680;53.800;9.988;2023-03-23T02:34:38;23.15;;;12.85;;
75993;SDS011;64680;53.800;9.988;2023-03-23T02:40:02;24.77;;;13.80;;
75993;SDS011;64680;53.800;9.988;2023-03-23T02:42:33;28.88;;;14.02;;
75993;SDS011;64680;53.800;9.988;2023-03-23T02:47:29;25.40;;;14.43;;
75993;SDS011;64680;53.800;9.988;2023-03-23T02:49:56;28.23;;;15.25;;
75993;SDS011;64680;53.800;9.988;2023-03-23T02:52:26;29.35;;;15.30;;
75993;SDS011;64680;53.800;9.988;2023-03-23T02:54:54;24.90;;;14.23;;
75993;SDS011;64680;53.800;9.988;2023-03-23T02:57:22;25.58;;;13.50;;
75993;SDS011;64680;53.800;9.988;2023-03-23T02:59:50;25.75;;;14.18;;
75993;SDS011;64680;53.800;9.988;2023-03-23T03:02:18;28.63;;;15.00;;
75993;SDS011;64680;53.800;9.988;2023-03-23T03:05:01;23.65;;;13.15;;
75993;SDS011;64680;53.800;9.988;2023-03-23T03:07:40;25.63;;;13.80;;
75993;SDS011;64680;53.800;9.988;2023-03-23T03:11:01;25.05;;;14.30;;
75993;SDS011;64680;53.800;9.988;2023-03-23T03:16:11;28.42;;;14.63;;
75993;SDS011;64680;53.800;9.988;2023-03-23T03:21:23;26.15;;;14.68;;
75993;SDS011;64680;53.800;9.988;2023-03-23T03:23:53;25.20;;;14.18;;
75993;SDS011;64680;53.800;9.988;2023-03-23T03:26:21;25.75;;;16.08;;
75993;SDS011;64680;53.800;9.988;2023-03-23T03:28:54;23.90;;;14.57;;
75993;SDS011;64680;53.800;9.988;2023-03-23T03:31:22;28.65;;;15.15;;
75993;SDS011;64680;53.800;9.988;2023-03-23T03:33:53;22.80;;;13.93;;
75993;SDS011;64680;53.800;9.988;2023-03-23T03:36:23;25.35;;;13.38;;
75993;SDS011;64680;53.800;9.988;2023-03-23T03:38:52;24.00;;;14.02;;
75993;SDS011;64680;53.800;9.988;2023-03-23T03:41:18;31.92;;;15.30;;
75993;SDS011;64680;53.800;9.988;2023-03-23T03:43:45;23.13;;;13.75;;
75993;SDS011;64680;53.800;9.988;2023-03-23T03:46:11;23.85;;;14.65;;
75993;SDS011;64680;53.800;9.988;2023-03-23T03:48:36;25.00;;;14.98;;
75993;SDS011;64680;53.800;9.988;2023-03-23T03:51:02;23.45;;;14.13;;
75993;SDS011;64680;53.800;9.988;2023-03-23T03:53:28;19.08;;;12.50;;
75993;SDS011;64680;53.800;9.988;2023-03-23T03:55:55;22.35;;;13.18;;
75993;SDS011;64680;53.800;9.988;2023-03-23T03:58:24;23.55;;;13.57;;
75993;SDS011;64680;53.800;9.988;2023-03-23T04:00:50;26.73;;;15.50;;
75993;SDS011;64680;53.800;9.988;2023-03-23T04:03:17;21.48;;;12.88;;
75993;SDS011;64680;53.800;9.988;2023-03-23T04:05:44;20.30;;;13.57;;
75993;SDS011;64680;53.800;9.988;2023-03-23T04:08:11;26.10;;;14.52;;
75993;SDS011;64680;53.800;9.988;2023-03-23T04:10:37;21.98;;;14.20;;
75993;SDS011;64680;53.800;9.988;2023-03-23T04:13:03;22.95;;;14.63;;
75993;SDS011;64680;53.800;9.988;2023-03-23T04:15:29;23.70;;;15.07;;
75993;SDS011;64680;53.800;9.988;2023-03-23T04:17:55;24.08;;;14.38;;
75993;SDS011;64680;53.800;9.988;2023-03-23T04:20:22;22.75;;;13.40;;
75993;SDS011;64680;53.800;9.988;2023-03-23T04:22:48;22.50;;;13.00;;
75993;SDS011;64680;53.800;9.988;2023-03-23T04:25:15;24.20;;;14.30;;
75993;SDS011;64680;53.800;9.988;2023-03-23T04:27:42;25.10;;;14.98;;
75993;SDS011;64680;53.800;9.988;2023-03-23T04:30:09;19.48;;;13.02;;
75993;SDS011;64680;53.800;9.988;2023-03-23T04:32:36;22.52;;;13.57;;
75993;SDS011;64680;53.800;9.988;2023-03-23T04:35:06;23.52;;;14.95;;
75993;SDS011;64680;53.800;9.988;2023-03-23T04:37:37;23.55;;;14.25;;
75993;SDS011;64680;53.800;9.988;2023-03-23T04:40:03;24.95;;;13.60;;
75993;SDS011;64680;53.800;9.988;2023-03-23T04:42:35;25.17;;;15.30;;
75993;SDS011;64680;53.800;9.988;2023-03-23T04:45:02;20.05;;;12.73;;
75993;SDS011;64680;53.800;9.988;2023-03-23T04:47:31;25.40;;;15.32;;
75993;SDS011;64680;53.800;9.988;2023-03-23T04:49:58;24.58;;;14.13;;
75993;SDS011;64680;53.800;9.988;2023-03-23T04:52:27;21.38;;;13.93;;
75993;SDS011;64680;53.800;9.988;2023-03-23T04:54:53;20.10;;;13.05;;
75993;SDS011;64680;53.800;9.988;2023-03-23T04:57:23;19.75;;;12.63;;
75993;SDS011;64680;53.800;9.988;2023-03-23T04:59:50;23.17;;;14.23;;
75993;SDS011;64680;53.800;9.988;2023-03-23T05:02:16;25.38;;;14.85;;
75993;SDS011;64680;53.800;9.988;2023-03-23T05:04:42;23.33;;;15.18;;
75993;SDS011;64680;53.800;9.988;2023-03-23T05:07:08;23.98;;;14.50;;
75993;SDS011;64680;53.800;9.988;2023-03-23T05:09:35;22.95;;;14.88;;
75993;SDS011;64680;53.800;9.988;2023-03-23T05:12:07;23.88;;;14.02;;
75993;SDS011;64680;53.800;9.988;2023-03-23T05:14:34;23.08;;;13.73;;
75993;SDS011;64680;53.800;9.988;2023-03-23T05:17:01;21.30;;;13.38;;
75993;SDS011;64680;53.800;9.988;2023-03-23T05:19:27;23.33;;;13.95;;
75993;SDS011;64680;53.800;9.988;2023-03-23T05:21:53;21.20;;;13.32;;
75993;SDS011;64680;53.800;9.988;2023-03-23T05:24:21;23.05;;;13.10;;
75993;SDS011;64680;53.800;9.988;2023-03-23T05:26:47;24.40;;;15.07;;
75993;SDS011;64680;53.800;9.988;2023-03-23T05:29:13;20.83;;;13.90;;
75993;SDS011;64680;53.800;9.988;2023-03-23T05:31:39;22.55;;;14.20;;
75993;SDS011;64680;53.800;9.988;2023-03-23T05:34:05;22.25;;;13.38;;
75993;SDS011;64680;53.800;9.988;2023-03-23T05:36:31;21.42;;;13.82;;
75993;SDS011;64680;53.800;9.988;2023-03-23T05:38:56;21.85;;;13.23;;
75993;SDS011;64680;53.800;9.988;2023-03-23T05:41:25;18.80;;;12.93;;
75993;SDS011;64680;53.800;9.988;2023-03-23T05:43:50;24.75;;;14.25;;
75993;SDS011;64680;53.800;9.988;2023-03-23T05:46:16;23.55;;;14.77;;
75993;SDS011;64680;53.800;9.988;2023-03-23T05:48:42;22.23;;;14.55;;
75993;SDS011;64680;53.800;9.988;2023-03-23T05:51:08;23.05;;;13.95;;
75993;SDS011;64680;53.800;9.988;2023-03-23T05:53:34;22.45;;;14.65;;
75993;SDS011;64680;53.800;9.988;2023-03-23T05:56:01;22.02;;;13.93;;
75993;SDS011;64680;53.800;9.988;2023-03-23T05:58:27;21.52;;;13.70;;
75993;SDS011;64680;53.800;9.988;2023-03-23T06:00:52;21.80;;;13.57;;
75993;SDS011;64680;53.800;9.988;2023-03-23T06:03:18;22.40;;;14.07;;
75993;SDS011;64680;53.800;9.988;2023-03-23T06:05:44;22.23;;;14.02;;
75993;SDS011;64680;53.800;9.988;2023-03-23T06:08:10;22.75;;;13.27;;
75993;SDS011;64680;53.800;9.988;2023-03-23T06:10:37;22.73;;;13.20;;
75993;SDS011;64680;53.800;9.988;2023-03-23T06:13:03;23.02;;;13.50;;
75993;SDS011;64680;53.800;9.988;2023-03-23T06:15:30;20.67;;;14.18;;
75993;SDS011;64680;53.800;9.988;2023-03-23T06:18:00;24.98;;;14.60;;
75993;SDS011;64680;53.800;9.988;2023-03-23T06:20:28;21.15;;;13.77;;
75993;SDS011;64680;53.800;9.988;2023-03-23T06:22:54;19.13;;;12.85;;
75993;SDS011;64680;53.800;9.988;2023-03-23T06:25:21;20.35;;;12.60;;
75993;SDS011;64680;53.800;9.988;2023-03-23T06:27:48;18.80;;;11.63;;
75993;SDS011;64680;53.800;9.988;2023-03-23T06:30:14;17.27;;;11.05;;
75993;SDS011;64680;53.800;9.988;2023-03-23T06:32:40;18.30;;;12.77;;
75993;SDS011;64680;53.800;9.988;2023-03-23T06:35:06;13.98;;;9.75;;
75993;SDS011;64680;53.800;9.988;2023-03-23T06:37:34;17.40;;;10.30;;
75993;SDS011;64680;53.800;9.988;2023-03-23T06:40:01;16.08;;;9.38;;
75993;SDS011;64680;53.800;9.988;2023-03-23T06:42:30;14.18;;;8.98;;
75993;SDS011;64680;53.800;9.988;2023-03-23T06:44:56;11.55;;;8.38;;
75993;SDS011;64680;53.800;9.988;2023-03-23T06:47:23;12.27;;;9.02;;
75993;SDS011;64680;53.800;9.988;2023-03-23T06:49:49;13.35;;;8.13;;
75993;SDS011;64680;53.800;9.988;2023-03-23T06:52:15;11.20;;;7.05;;
75993;SDS011;64680;53.800;9.988;2023-03-23T06:54:41;10.57;;;6.88;;
75993;SDS011;64680;53.800;9.988;2023-03-23T06:57:07;9.95;;;6.25;;
75993;SDS011;64680;53.800;9.988;2023-03-23T06:59:33;8.80;;;6.00;;
75993;SDS011;64680;53.800;9.988;2023-03-23T07:01:58;8.93;;;6.18;;
75993;SDS011;64680;53.800;9.988;2023-03-23T07:04:24;9.57;;;5.90;;
75993;SDS011;64680;53.800;9.988;2023-03-23T07:06:49;9.95;;;5.90;;
75993;SDS011;64680;53.800;9.988;2023-03-23T07:09:15;9.15;;;5.50;;
75993;SDS011;64680;53.800;9.988;2023-03-23T07:11:41;8.02;;;5.88;;
75993;SDS011;64680;53.800;9.988;2023-03-23T07:14:08;8.73;;;6.10;;
75993;SDS011;64680;53.800;9.988;2023-03-23T07:16:34;10.48;;;6.03;;
75993;SDS011;64680;53.800;9.988;2023-03-23T07:18:59;10.13;;;5.65;;
75993;SDS011;64680;53.800;9.988;2023-03-23T07:21:25;8.57;;;5.53;;
75993;SDS011;64680;53.800;9.988;2023-03-23T07:23:51;10.27;;;5.38;;
75993;SDS011;64680;53.800;9.988;2023-03-23T07:26:17;8.68;;;5.57;;
75993;SDS011;64680;53.800;9.988;2023-03-23T07:28:42;8.13;;;4.82;;
75993;SDS011;64680;53.800;9.988;2023-03-23T07:31:08;7.97;;;5.10;;
75993;SDS011;64680;53.800;9.988;2023-03-23T07:33:34;8.25;;;5.47;;
75993;SDS011;64680;53.800;9.988;2023-03-23T07:36:01;7.63;;;5.20;;
75993;SDS011;64680;53.800;9.988;2023-03-23T07:38:27;7.20;;;5.60;;
75993;SDS011;64680;53.800;9.988;2023-03-23T07:40:55;8.20;;;5.80;;
75993;SDS011;64680;53.800;9.988;2023-03-23T07:43:21;7.50;;;5.70;;
75993;SDS011;64680;53.800;9.988;2023-03-23T07:45:47;9.90;;;5.47;;
75993;SDS011;64680;53.800;9.988;2023-03-23T07:48:13;11.05;;;5.90;;
75993;SDS011;64680;53.800;9.988;2023-03-23T07:50:38;7.40;;;4.80;;
75993;SDS011;64680;53.800;9.988;2023-03-23T07:53:05;6.57;;;4.75;;
75993;SDS011;64680;53.800;9.988;2023-03-23T07:55:30;7.25;;;4.50;;
75993;SDS011;64680;53.800;9.988;2023-03-23T07:57:56;6.70;;;3.85;;
75993;SDS011;64680;53.800;9.988;2023-03-23T08:00:22;7.68;;;4.10;;
75993;SDS011;64680;53.800;9.988;2023-03-23T08:02:50;5.68;;;3.08;;
75993;SDS011;64680;53.800;9.988;2023-03-23T08:05:17;5.68;;;2.80;;
75993;SDS011;64680;53.800;9.988;2023-03-23T08:07:44;5.72;;;2.20;;
75993;SDS011;64680;53.800;9.988;2023-03-23T08:10:11;4.10;;;3.20;;
75993;SDS011;64680;53.800;9.988;2023-03-23T08:12:41;4.03;;;1.65;;
75993;SDS011;64680;53.800;9.988;2023-03-23T08:15:08;3.53;;;1.50;;
75993;SDS011;64680;53.800;9.988;2023-03-23T08:17:37;2.47;;;1.40;;
75993;SDS011;64680;53.800;9.988;2023-03-23T08:20:03;4.32;;;1.55;;
75993;SDS011;64680;53.800;9.988;2023-03-23T08:22:34;6.18;;;1.83;;
75993;SDS011;64680;53.800;9.988;2023-03-23T08:25:01;3.80;;;1.48;;
75993;SDS011;64680;53.800;9.988;2023-03-23T08:27:28;3.88;;;1.85;;
75993;SDS011;64680;53.800;9.988;2023-03-23T08:29:54;4.30;;;1.45;;
75993;SDS011;64680;53.800;9.988;2023-03-23T08:32:20;2.63;;;1.15;;
75993;SDS011;64680;53.800;9.988;2023-03-23T08:34:46;3.08;;;0.70;;
75993;SDS011;64680;53.800;9.988;2023-03-23T08:37:12;2.92;;;1.10;;
75993;SDS011;64680;53.800;9.988;2023-03-23T08:39:37;2.70;;;1.10;;
75993;SDS011;64680;53.800;9.988;2023-03-23T08:42:04;4.30;;;1.02;;
75993;SDS011;64680;53.800;9.988;2023-03-23T08:44:29;5.10;;;0.73;;
75993;SDS011;64680;53.800;9.988;2023-03-23T08:46:55;6.57;;;0.90;;
75993;SDS011;64680;53.800;9.988;2023-03-23T08:49:21;5.65;;;1.27;;
75993;SDS011;64680;53.800;9.988;2023-03-23T08:51:48;5.55;;;0.95;;
75993;SDS011;64680;53.800;9.988;2023-03-23T08:54:13;6.22;;;1.10;;
75993;SDS011;64680;53.800;9.988;2023-03-23T08:56:39;3.00;;;0.77;;
75993;SDS011;64680;53.800;9.988;2023-03-23T08:59:04;6.18;;;0.93;;
75993;SDS011;64680;53.800;9.988;2023-03-23T09:01:31;3.25;;;0.52;;
75993;SDS011;64680;53.800;9.988;2023-03-23T09:03:58;3.65;;;0.60;;
75993;SDS011;64680;53.800;9.988;2023-03-23T09:06:24;4.75;;;1.05;;
75993;SDS011;64680;53.800;9.988;2023-03-23T09:08:50;4.07;;;0.85;;
75993;SDS011;64680;53.800;9.988;2023-03-23T09:11:16;4.68;;;0.82;;
75993;SDS011;64680;53.800;9.988;2023-03-23T09:13:42;3.97;;;0.70;;
75993;SDS011;64680;53.800;9.988;2023-03-23T09:16:08;7.55;;;1.10;;
75993;SDS011;64680;53.800;9.988;2023-03-23T09:18:34;3.75;;;0.85;;
75993;SDS011;64680;53.800;9.988;2023-03-23T09:21:00;4.18;;;1.00;;
75993;SDS011;64680;53.800;9.988;2023-03-23T09:23:27;4.30;;;1.10;;
75993;SDS011;64680;53.800;9.988;2023-03-23T09:25:52;3.78;;;1.08;;
75993;SDS011;64680;53.800;9.988;2023-03-23T09:28:19;5.25;;;1.08;;
75993;SDS011;64680;53.800;9.988;2023-03-23T09:30:45;5.82;;;1.05;;
75993;SDS011;64680;53.800;9.988;2023-03-23T09:33:12;4.65;;;1.15;;
75993;SDS011;64680;53.800;9.988;2023-03-23T09:35:38;5.10;;;1.10;;
75993;SDS011;64680;53.800;9.988;2023-03-23T09:38:06;5.50;;;1.25;;
75993;SDS011;64680;53.800;9.988;2023-03-23T09:43:26;3.33;;;1.30;;
75993;SDS011;64680;53.800;9.988;2023-03-23T09:51:13;5.10;;;1.30;;
75993;SDS011;64680;53.800;9.988;2023-03-23T09:53:41;4.60;;;1.13;;
75993;SDS011;64680;53.800;9.988;2023-03-23T09:56:11;3.88;;;0.95;;
75993;SDS011;64680;53.800;9.988;2023-03-23T09:58:45;4.68;;;1.33;;
75993;SDS011;64680;53.800;9.988;2023-03-23T10:01:16;7.07;;;1.13;;
75993;SDS011;64680;53.800;9.988;2023-03-23T10:04:15;5.78;;;1.48;;
75993;SDS011;64680;53.800;9.988;2023-03-23T10:06:54;4.88;;;1.20;;
75993;SDS011;64680;53.800;9.988;2023-03-23T10:09:31;6.30;;;1.25;;
75993;SDS011;64680;53.800;9.988;2023-03-23T10:12:06;5.25;;;1.10;;
75993;SDS011;64680;53.800;9.988;2023-03-23T10:14:52;5.25;;;1.25;;
75993;SDS011;64680;53.800;9.988;2023-03-23T10:17:33;6.75;;;1.08;;
75993;SDS011;64680;53.800;9.988;2023-03-23T10:20:21;4.50;;;1.13;;
75993;SDS011;64680;53.800;9.988;2023-03-23T10:22:57;6.00;;;1.30;;
75993;SDS011;64680;53.800;9.988;2023-03-23T10:25:32;4.82;;;0.93;;
75993;SDS011;64680;53.800;9.988;2023-03-23T10:30:37;5.15;;;1.15;;
75993;SDS011;64680;53.800;9.988;2023-03-23T10:33:11;4.22;;;1.40;;
75993;SDS011;64680;53.800;9.988;2023-03-23T10:38:43;7.20;;;1.15;;
75993;SDS011;64680;53.800;9.988;2023-03-23T10:41:17;7.40;;;1.13;;
75993;SDS011;64680;53.800;9.988;2023-03-23T10:43:44;5.72;;;1.00;;
75993;SDS011;64680;53.800;9.988;2023-03-23T10:49:16;6.32;;;1.20;;
75993;SDS011;64680;53.800;9.988;2023-03-23T10:51:47;5.50;;;1.00;;
75993;SDS011;64680;53.800;9.988;2023-03-23T10:54:37;8.75;;;1.50;;
75993;SDS011;64680;53.800;9.988;2023-03-23T10:57:13;6.47;;;0.70;;
75993;SDS011;64680;53.800;9.988;2023-03-23T10:59:48;8.50;;;1.08;;
75993;SDS011;64680;53.800;9.988;2023-03-23T11:02:16;7.20;;;1.55;;
75993;SDS011;64680;53.800;9.988;2023-03-23T11:04:53;6.78;;;1.70;;
75993;SDS011;64680;53.800;9.988;2023-03-23T11:09:52;5.82;;;1.63;;
75993;SDS011;64680;53.800;9.988;2023-03-23T11:12:20;6.65;;;0.90;;
75993;SDS011;64680;53.800;9.988;2023-03-23T11:14:48;6.03;;;2.13;;
75993;SDS011;64680;53.800;9.988;2023-03-23T11:17:26;9.25;;;1.30;;
75993;SDS011;64680;53.800;9.988;2023-03-23T11:19:52;5.45;;;1.20;;
75993;SDS011;64680;53.800;9.988;2023-03-23T11:22:24;6.82;;;1.20;;
75993;SDS011;64680;53.800;9.988;2023-03-23T11:24:53;8.40;;;1.35;;
75993;SDS011;64680;53.800;9.988;2023-03-23T11:27:21;5.32;;;1.17;;
75993;SDS011;64680;53.800;9.988;2023-03-23T11:29:50;5.65;;;1.08;;
75993;SDS011;64680;53.800;9.988;2023-03-23T11:32:21;8.38;;;1.30;;
75993;SDS011;64680;53.800;9.988;2023-03-23T11:34:59;9.73;;;1.98;;
75993;SDS011;64680;53.800;9.988;2023-03-23T11:40:00;4.65;;;1.35;;
75993;SDS011;64680;53.800;9.988;2023-03-23T11:42:56;7.00;;;1.13;;
75993;SDS011;64680;53.800;9.988;2023-03-23T11:45:39;7.85;;;1.27;;
75993;SDS011;64680;53.800;9.988;2023-03-23T11:48:13;5.10;;;1.23;;
75993;SDS011;64680;53.800;9.988;2023-03-23T11:50:54;9.48;;;1.15;;
75993;SDS011;64680;53.800;9.988;2023-03-23T11:53:40;6.65;;;2.40;;
75993;SDS011;64680;53.800;9.988;2023-03-23T11:56:35;8.98;;;1.10;;
75993;SDS011;64680;53.800;9.988;2023-03-23T11:59:03;6.50;;;1.30;;
75993;SDS011;64680;53.800;9.988;2023-03-23T12:01:41;8.88;;;1.58;;
75993;SDS011;64680;53.800;9.988;2023-03-23T12:04:19;7.47;;;1.23;;
75993;SDS011;64680;53.800;9.988;2023-03-23T12:18:24;7.80;;;1.95;;
75993;SDS011;64680;53.800;9.988;2023-03-23T12:27:06;8.05;;;1.13;;
75993;SDS011;64680;53.800;9.988;2023-03-23T12:49:34;7.45;;;1.58;;
75993;SDS011;64680;53.800;9.988;2023-03-23T12:55:01;7.07;;;1.23;;
75993;SDS011;64680;53.800;9.988;2023-03-23T12:57:50;8.55;;;1.40;;
75993;SDS011;64680;53.800;9.988;2023-03-23T13:00:30;6.72;;;1.45;;
75993;SDS011;64680;53.800;9.988;2023-03-23T13:05:49;7.80;;;1.70;;
75993;SDS011;64680;53.800;9.988;2023-03-23T13:08:22;5.35;;;1.20;;
75993;SDS011;64680;53.800;9.988;2023-03-23T13:11:00;8.25;;;1.25;;
75993;SDS011;64680;53.800;9.988;2023-03-23T13:19:11;6.53;;;1.55;;
75993;SDS011;64680;53.800;9.988;2023-03-23T13:22:11;8.48;;;1.70;;
75993;SDS011;64680;53.800;9.988;2023-03-23T13:24:54;7.72;;;2.13;;
75993;SDS011;64680;53.800;9.988;2023-03-23T13:27:25;8.02;;;1.60;;
75993;SDS011;64680;53.800;9.988;2023-03-23T13:29:53;8.88;;;2.30;;
75993;SDS011;64680;53.800;9.988;2023-03-23T13:32:20;7.57;;;1.95;;
75993;SDS011;64680;53.800;9.988;2023-03-23T13:34:54;6.53;;;1.70;;
75993;SDS011;64680;53.800;9.988;2023-03-23T13:37:23;6.43;;;1.70;;
75993;SDS011;64680;53.800;9.988;2023-03-23T13:39:51;7.53;;;2.00;;
75993;SDS011;64680;53.800;9.988;2023-03-23T13:42:25;6.90;;;1.75;;
75993;SDS011;64680;53.800;9.988;2023-03-23T13:45:05;6.55;;;1.90;;
75993;SDS011;64680;53.800;9.988;2023-03-23T13:47:40;6.38;;;1.60;;
75993;SDS011;64680;53.800;9.988;2023-03-23T13:50:11;5.25;;;1.30;;
75993;SDS011;64680;53.800;9.988;2023-03-23T13:52:53;8.57;;;1.77;;
75993;SDS011;64680;53.800;9.988;2023-03-23T13:55:29;6.13;;;1.80;;
75993;SDS011;64680;53.800;9.988;2023-03-23T14:03:00;6.35;;;2.00;;
75993;SDS011;64680;53.800;9.988;2023-03-23T14:08:13;9.35;;;3.08;;
75993;SDS011;64680;53.800;9.988;2023-03-23T14:10:56;7.47;;;2.40;;
75993;SDS011;64680;53.800;9.988;2023-03-23T14:13:29;6.50;;;2.03;;
75993;SDS011;64680;53.800;9.988;2023-03-23T14:18:34;6.43;;;2.05;;
75993;SDS011;64680;53.800;9.988;2023-03-23T14:21:02;3.97;;;1.90;;
75993;SDS011;64680;53.800;9.988;2023-03-23T14:23:31;5.00;;;1.70;;
75993;SDS011;64680;53.800;9.988;2023-03-23T14:25:59;6.57;;;2.20;;
75993;SDS011;64680;53.800;9.988;2023-03-23T14:28:35;8.38;;;2.22;;
75993;SDS011;64680;53.800;9.988;2023-03-23T14:31:05;6.57;;;2.08;;
75993;SDS011;64680;53.800;9.988;2023-03-23T14:33:45;7.05;;;2.00;;
75993;SDS011;64680;53.800;9.988;2023-03-23T14:36:13;5.88;;;1.90;;
75993;SDS011;64680;53.800;9.988;2023-03-23T14:38:39;5.65;;;1.80;;
75993;SDS011;64680;53.800;9.988;2023-03-23T14:41:05;4.85;;;2.00;;
75993;SDS011;64680;53.800;9.988;2023-03-23T14:43:32;8.07;;;1.48;;
75993;SDS011;64680;53.800;9.988;2023-03-23T14:46:01;4.47;;;1.67;;
75993;SDS011;64680;53.800;9.988;2023-03-23T14:48:30;8.98;;;1.80;;
75993;SDS011;64680;53.800;9.988;2023-03-23T14:50:59;4.32;;;1.30;;
75993;SDS011;64680;53.800;9.988;2023-03-23T14:53:39;7.72;;;1.90;;
75993;SDS011;64680;53.800;9.988;2023-03-23T14:56:14;5.07;;;1.63;;
75993;SDS011;64680;53.800;9.988;2023-03-23T14:58:47;5.68;;;1.50;;
75993;SDS011;64680;53.800;9.988;2023-03-23T15:01:35;6.22;;;1.85;;
75993;SDS011;64680;53.800;9.988;2023-03-23T15:04:23;4.63;;;1.30;;
75993;SDS011;64680;53.800;9.988;2023-03-23T15:06:50;6.03;;;1.33;;
75993;SDS011;64680;53.800;9.988;2023-03-23T15:09:20;4.97;;;1.25;;
75993;SDS011;64680;53.800;9.988;2023-03-23T15:12:05;4.95;;;1.00;;
75993;SDS011;64680;53.800;9.988;2023-03-23T15:14:35;6.95;;;1.48;;
75993;SDS011;64680;53.800;9.988;2023-03-23T15:17:11;4.38;;;1.45;;
75993;SDS011;64680;53.800;9.988;2023-03-23T15:19:44;5.40;;;1.42;;
75993;SDS011;64680;53.800;9.988;2023-03-23T15:22:19;5.95;;;1.90;;
75993;SDS011;64680;53.800;9.988;2023-03-23T15:24:45;6.05;;;1.40;;
75993;SDS011;64680;53.800;9.988;2023-03-23T15:27:29;8.40;;;1.73;;
75993;SDS011;64680;53.800;9.988;2023-03-23T15:29:58;7.18;;;1.17;;
75993;SDS011;64680;53.800;9.988;2023-03-23T15:32:40;6.97;;;1.92;;
75993;SDS011;64680;53.800;9.988;2023-03-23T15:35:32;8.32;;;1.88;;
75993;SDS011;64680;53.800;9.988;2023-03-23T15:37:59;9.35;;;2.08;;
75993;SDS011;64680;53.800;9.988;2023-03-23T15:40:34;9.18;;;2.00;;
75993;SDS011;64680;53.800;9.988;2023-03-23T15:46:02;7.90;;;1.77;;
75993;SDS011;64680;53.800;9.988;2023-03-23T15:48:54;6.03;;;1.33;;
75993;SDS011;64680;53.800;9.988;2023-03-23T15:51:33;6.40;;;1.52;;
75993;SDS011;64680;53.800;9.988;2023-03-23T15:53:59;6.75;;;1.45;;
75993;SDS011;64680;53.800;9.988;2023-03-23T15:56:26;9.60;;;1.83;;
75993;SDS011;64680;53.800;9.988;2023-03-23T15:58:52;7.35;;;1.60;;
75993;SDS011;64680;53.800;9.988;2023-03-23T16:01:19;8.43;;;1.77;;
75993;SDS011;64680;53.800;9.988;2023-03-23T16:03:53;6.72;;;1.70;;
75993;SDS011;64680;53.800;9.988;2023-03-23T16:06:40;5.10;;;1.25;;
75993;SDS011;64680;53.800;9.988;2023-03-23T16:09:07;7.68;;;1.75;;
75993;SDS011;64680;53.800;9.988;2023-03-23T16:11:38;5.93;;;1.60;;
75993;SDS011;64680;53.800;9.988;2023-03-23T16:14:04;6.80;;;1.40;;
75993;SDS011;64680;53.800;9.988;2023-03-23T16:16:34;6.55;;;1.50;;
75993;SDS011;64680;53.800;9.988;2023-03-23T16:19:10;8.68;;;2.08;;
75993;SDS011;64680;53.800;9.988;2023-03-23T16:21:37;6.45;;;1.70;;
75993;SDS011;64680;53.800;9.988;2023-03-23T16:24:02;8.10;;;1.58;;
75993;SDS011;64680;53.800;9.988;2023-03-23T16:26:28;5.43;;;1.63;;
75993;SDS011;64680;53.800;9.988;2023-03-23T16:28:54;6.68;;;1.30;;
75993;SDS011;64680;53.800;9.988;2023-03-23T16:31:19;4.85;;;1.30;;
75993;SDS011;64680;53.800;9.988;2023-03-23T16:33:45;6.15;;;1.70;;
75993;SDS011;64680;53.800;9.988;2023-03-23T16:36:11;2.67;;;1.30;;
75993;SDS011;64680;53.800;9.988;2023-03-23T16:38:38;4.13;;;1.40;;
75993;SDS011;64680;53.800;9.988;2023-03-23T16:41:06;6.07;;;1.42;;
75993;SDS011;64680;53.800;9.988;2023-03-23T16:43:33;4.75;;;1.77;;
75993;SDS011;64680;53.800;9.988;2023-03-23T16:45:59;3.55;;;1.10;;
75993;SDS011;64680;53.800;9.988;2023-03-23T16:48:25;5.20;;;1.50;;